Time;durP1;ratioP1;P1;durP2;ratioP2;P2;SDS_P1;SDS_P2;PMS_P1;PMS_P2;Temp;Humidity;BMP_temperature;BMP_pressure;BME280_temperature;BME280_humidity;BME280_pressure;Samples;Min_cycle;Max_cycle;Signal;HPM_P1;HPM_P2
2021/01/06 00:04:42;;;;;;;0.50;0.50;;;2.50;99.90;;;;;;4626546;30;20260;-90
2021/01/06 00:07:51;;;;;;;0.50;0.50;;;2.50;99.90;;;;;;4699719;30;20224;-90
2021/01/06 00:10:42;;;;;;;0.50;0.50;;;2.80;99.90;;;;;;4729372;30;20247;-89
2021/01/06 00:58:49;;;;;;;0.50;0.50;;;1.60;99.90;;;;;;4694658;29;20272;-87
2021/01/06 01:01:24;;;;;;;0.50;0.50;;;3.20;99.90;;;;;;4805095;29;20325;-89
2021/01/06 01:04:31;;;;;;;0.50;0.50;;;2.30;99.90;;;;;;4837425;29;20215;-88
2021/01/06 01:07:43;;;;;;;0.50;0.50;;;1.70;99.90;;;;;;4823688;29;20579;-88
2021/01/06 01:10:42;;;;;;;0.50;0.50;;;2.10;99.90;;;;;;4819212;29;20215;-89
2021/01/06 01:13:26;;;;;;;0.50;0.50;;;2.80;99.90;;;;;;4841163;29;20354;-89
2021/01/06 01:16:09;;;;;;;0.50;0.50;;;1.70;99.90;;;;;;4841467;29;20679;-89
2021/01/06 01:19:19;;;;;;;0.50;0.50;;;1.70;99.90;;;;;;4841565;29;20261;-89
2021/01/06 01:22:03;;;;;;;0.50;0.50;;;2.20;99.90;;;;;;4841165;29;20211;-90
2021/01/06 01:24:55;;;;;;;0.52;0.52;;;2.30;99.90;;;;;;4841712;29;20246;-89
2021/01/06 02:04:40;;;;;;;0.50;0.50;;;2.20;99.90;;;;;;4711963;30;20609;-90
2021/01/06 03:56:18;;;;;;;;;;;;;;;;;;;;;
2021/01/06 05:40:42;;;;;;;;;;;;;;;;;;;;;
2021/01/06 07:01:47;;;;;;;0.50;0.50;;;0.70;99.90;;;;;;5719886;23;20212;-87
2021/01/06 07:04:20;;;;;;;0.50;0.50;;;0.80;99.90;;;;;;4838264;29;20212;-86
2021/01/06 07:07:03;;;;;;;0.50;0.50;;;2.40;99.90;;;;;;5250650;23;20243;-91
2021/01/06 07:09:39;;;;;;;0.50;0.50;;;0.70;99.90;;;;;;4878537;29;20215;-88
2021/01/06 08:08:03;;;;;;;0.50;0.50;;;0.70;99.90;;;;;;4782208;30;20761;-92
2021/01/06 08:14:01;;;;;;;0.50;0.50;;;1.60;99.90;;;;;;4795066;29;20211;-92
2021/01/06 08:16:37;;;;;;;0.50;0.50;;;0.50;99.90;;;;;;4822733;29;20552;-88
2021/01/06 08:19:13;;;;;;;0.50;0.50;;;0.20;99.90;;;;;;4858979;29;20210;-88
2021/01/06 08:21:47;;;;;;;0.50;0.50;;;0.60;99.90;;;;;;4866139;29;20208;-88
2021/01/06 08:24:26;;;;;;;0.50;0.50;;;0.40;99.90;;;;;;4865910;29;20640;-88
2021/01/06 08:26:55;;;;;;;0.50;0.50;;;0.50;99.90;;;;;;4838146;29;20272;-90
2021/01/06 08:29:26;;;;;;;0.50;0.50;;;0.40;99.90;;;;;;4838228;29;20240;-90
2021/01/06 08:31:55;;;;;;;0.40;0.40;;;0.50;99.90;;;;;;4838538;29;20223;-90
2021/01/06 08:34:28;;;;;;;0.50;0.50;;;0.20;99.90;;;;;;4838325;29;20226;-89
2021/01/06 08:36:57;;;;;;;0.40;0.40;;;0.50;99.90;;;;;;4838113;29;20988;-88
2021/01/06 08:39:26;;;;;;;0.50;0.50;;;0.30;99.90;;;;;;4840472;29;20683;-89
2021/01/06 08:41:55;;;;;;;0.45;0.45;;;0.50;99.90;;;;;;4866924;29;20232;-88
2021/01/06 08:44:37;;;;;;;0.50;0.50;;;0.40;99.90;;;;;;4872247;29;20214;-89
2021/01/06 08:47:05;;;;;;;0.50;0.50;;;0.30;99.90;;;;;;4875081;29;20712;-88
2021/01/06 08:49:34;;;;;;;0.50;0.50;;;0.60;99.90;;;;;;4874944;29;20569;-89
2021/01/06 08:52:42;;;;;;;0.50;0.50;;;0.20;99.90;;;;;;4877330;29;20274;-89
2021/01/06 08:55:25;;;;;;;0.50;0.50;;;0.60;99.90;;;;;;4875830;29;20338;-88
2021/01/06 08:58:16;;;;;;;0.40;0.40;;;0.20;99.90;;;;;;4875640;29;20214;-88
2021/01/06 09:01:17;;;;;;;0.40;0.40;;;0.20;99.90;;;;;;4879967;29;20226;-92
2021/01/06 09:04:12;;;;;;;0.50;0.50;;;1.50;99.90;;;;;;4878492;29;20624;-88
2021/01/06 09:07:06;;;;;;;0.40;0.40;;;0.50;99.90;;;;;;4862394;29;20625;-87
2021/01/06 09:13:38;;;;;;;0.40;0.40;;;0.80;99.90;;;;;;4867215;29;20198;-90
2021/01/06 09:20:04;;;;;;;;;;;;;;;;;;;;;
2021/01/06 10:52:33;;;;;;;;;;;;;;;;;;;;;
2021/01/06 11:35:32;;;;;;;0.45;0.45;;;0.60;99.90;;;;;;5296171;23;20254;-90
2021/01/06 11:38:00;;;;;;;0.40;0.40;;;1.70;99.90;;;;;;4836465;29;20219;-91
2021/01/06 11:40:47;;;;;;;0.40;0.40;;;1.10;99.90;;;;;;4833938;29;20212;-91
2021/01/06 12:33:56;;;;;;;0.40;0.40;;;0.60;99.90;;;;;;4852386;29;20422;-90
2021/01/06 12:37:30;;;;;;;0.40;0.40;;;-0.30;99.90;;;;;;4851707;29;20261;-90
2021/01/06 12:44:18;;;;;;;0.43;0.43;;;1.90;99.90;;;;;;4762350;30;20328;-90
2021/01/06 14:05:20;;;;;;;0.40;0.40;;;0.50;99.90;;;;;;4672779;30;20222;-89
2021/01/06 14:08:40;;;;;;;0.40;0.40;;;0.60;99.90;;;;;;4738177;29;20211;-89
2021/01/06 14:25:42;;;;;;;0.40;0.40;;;0.40;99.90;;;;;;4787473;29;20460;-89
2021/01/06 14:32:52;;;;;;;0.40;0.40;;;0.80;99.90;;;;;;4771940;29;20224;-90
2021/01/06 14:35:43;;;;;;;0.40;0.40;;;0.60;99.90;;;;;;4789221;29;20582;-89
2021/01/06 14:42:03;;;;;;;0.40;0.40;;;0.60;99.90;;;;;;4760306;30;20694;-88
2021/01/06 14:48:38;;;;;;;0.40;0.40;;;0.50;99.90;;;;;;4750645;30;20814;-88
2021/01/06 14:51:59;;;;;;;0.40;0.40;;;0.50;99.90;;;;;;4785106;29;20282;-88
2021/01/06 15:07:54;;;;;;;0.40;0.40;;;0.80;99.90;;;;;;4741298;29;20285;-90
2021/01/06 17:10:06;;;;;;;0.40;0.40;;;0.40;99.90;;;;;;4851478;29;20201;-95
2021/01/06 17:12:46;;;;;;;0.40;0.40;;;1.20;99.90;;;;;;4848448;29;20820;-91
2021/01/06 17:15:24;;;;;;;0.40;0.40;;;0.50;99.90;;;;;;4847122;29;20472;-89
2021/01/06 17:17:52;;;;;;;0.40;0.40;;;0.20;99.90;;;;;;4847299;29;20217;-87
2021/01/06 17:20:23;;;;;;;0.40;0.40;;;0.30;99.90;;;;;;4848454;29;20734;-88
2021/01/06 17:22:49;;;;;;;0.50;0.50;;;0.30;99.90;;;;;;4849829;29;20278;-89
2021/01/06 17:25:17;;;;;;;0.40;0.40;;;0.30;99.90;;;;;;4848283;29;20224;-89
2021/01/06 17:27:46;;;;;;;0.40;0.40;;;0.20;99.90;;;;;;4850307;29;20211;-88
2021/01/06 17:30:17;;;;;;;0.40;0.40;;;0.30;99.90;;;;;;4854308;29;20222;-89
2021/01/06 17:32:44;;;;;;;0.40;0.40;;;0.20;99.90;;;;;;4842629;29;20255;-88
2021/01/06 17:35:27;;;;;;;0.40;0.40;;;0.30;99.90;;;;;;4847169;29;20568;-90
2021/01/06 17:37:57;;;;;;;0.40;0.40;;;0.30;99.90;;;;;;4847401;29;20219;-90
2021/01/06 17:40:23;;;;;;;0.40;0.40;;;0.30;99.90;;;;;;4845719;29;20633;-89
2021/01/06 17:42:55;;;;;;;0.40;0.40;;;0.30;99.90;;;;;;4844039;29;20578;-90
2021/01/06 17:45:22;;;;;;;0.40;0.40;;;0.30;99.90;;;;;;4842773;29;20718;-90
2021/01/06 17:47:49;;;;;;;0.40;0.40;;;0.30;99.90;;;;;;4844208;29;20203;-88
2021/01/06 17:50:16;;;;;;;0.40;0.40;;;0.40;99.90;;;;;;4842622;29;20255;-89
2021/01/06 17:52:43;;;;;;;0.40;0.40;;;0.30;99.90;;;;;;4850846;29;20211;-89
2021/01/06 17:55:13;;;;;;;0.40;0.40;;;0.20;99.90;;;;;;4851551;29;20224;-90
2021/01/06 17:57:40;;;;;;;0.40;0.40;;;0.20;99.90;;;;;;4840919;29;20312;-85
2021/01/06 18:00:11;;;;;;;0.40;0.40;;;0.30;99.90;;;;;;4842612;29;20227;-86
2021/01/06 18:02:38;;;;;;;0.40;0.40;;;0.20;99.90;;;;;;4845879;29;20215;-91
2021/01/06 18:05:06;;;;;;;0.40;0.40;;;0.30;99.90;;;;;;4852421;29;20221;-91
2021/01/06 18:16:41;;;;;;;0.40;0.40;;;;;;;;;;4709834;30;20220;-90
2021/01/06 18:19:20;;;;;;;0.40;0.40;;;0.20;99.90;;;;;;4802341;29;20230;-88
2021/01/06 18:21:46;;;;;;;0.40;0.40;;;0.00;99.90;;;;;;4853480;29;20363;-88
2021/01/06 18:24:17;;;;;;;0.40;0.40;;;1.60;99.90;;;;;;4848017;29;20239;-89
2021/01/06 18:26:58;;;;;;;0.40;0.40;;;0.00;99.90;;;;;;4847209;29;20566;-88
2021/01/06 18:29:35;;;;;;;0.40;0.40;;;-0.90;99.90;;;;;;4850481;29;20302;-90
2021/01/06 18:32:10;;;;;;;0.40;0.40;;;-0.20;99.90;;;;;;4850442;29;20231;-89
2021/01/06 18:34:38;;;;;;;0.40;0.40;;;;;;;;;;4846987;29;20671;-91
2021/01/06 18:37:23;;;;;;;0.40;0.40;;;0.20;99.90;;;;;;4849281;29;20246;-89
2021/01/06 18:40:41;;;;;;;;;;;;;;;;;;;;;
2021/01/06 18:46:37;;;;;;;0.47;0.47;;;0.20;99.90;;;;;;4806777;29;20624;-89
2021/01/06 18:49:13;;;;;;;0.40;0.40;;;1.00;99.90;;;;;;4847979;29;20575;-90
2021/01/06 18:51:51;;;;;;;0.40;0.40;;;0.20;99.90;;;;;;4848782;29;20219;-88
2021/01/06 18:54:23;;;;;;;0.40;0.40;;;0.00;99.90;;;;;;4847798;29;20212;-90
2021/01/06 18:56:50;;;;;;;0.40;0.40;;;0.30;99.90;;;;;;4846470;29;20398;-91
2021/01/06 18:59:56;;;;;;;0.40;0.40;;;0.20;99.90;;;;;;4850821;29;20238;-90
2021/01/06 19:02:39;;;;;;;0.40;0.40;;;0.20;99.90;;;;;;4742043;30;20215;-90
2021/01/06 19:05:07;;;;;;;0.40;0.40;;;-0.20;99.90;;;;;;4800791;29;20228;-89
2021/01/06 19:07:45;;;;;;;0.40;0.40;;;0.50;99.90;;;;;;4847828;29;20238;-91
2021/01/06 19:10:22;;;;;;;0.40;0.40;;;0.20;99.90;;;;;;4841878;29;20535;-87
2021/01/06 19:16:24;;;;;;;0.40;0.40;;;1.40;99.90;;;;;;4837536;29;20207;-92
2021/01/06 19:19:27;;;;;;;0.50;0.50;;;0.20;99.90;;;;;;4843424;29;20274;-87
2021/01/06 19:22:06;;;;;;;0.50;0.50;;;0.30;99.90;;;;;;4843063;29;20219;-86
2021/01/06 19:24:32;;;;;;;0.40;0.40;;;0.20;99.90;;;;;;4840365;29;20235;-83
2021/01/06 19:27:06;;;;;;;0.40;0.40;;;0.30;99.90;;;;;;4841751;29;20232;-86
2021/01/06 19:29:36;;;;;;;0.40;0.40;;;0.30;99.90;;;;;;4847865;29;20240;-92
2021/01/06 19:32:10;;;;;;;0.40;0.40;;;0.30;99.90;;;;;;4856107;29;20251;-89
2021/01/06 19:34:51;;;;;;;0.40;0.40;;;0.30;99.90;;;;;;4860720;29;20217;-89
2021/01/06 19:37:23;;;;;;;0.40;0.40;;;0.30;99.90;;;;;;4847623;29;20204;-90
2021/01/06 19:39:55;;;;;;;0.40;0.40;;;0.20;99.90;;;;;;4841107;29;20211;-89
2021/01/06 19:42:22;;;;;;;0.40;0.40;;;0.30;99.90;;;;;;4853661;29;20211;-90
2021/01/06 19:44:48;;;;;;;0.40;0.40;;;0.20;99.90;;;;;;4859527;29;20251;-85
2021/01/06 19:47:49;;;;;;;0.40;0.40;;;0.30;99.90;;;;;;4841387;29;20224;-84
2021/01/06 19:50:16;;;;;;;0.40;0.40;;;0.20;99.90;;;;;;4850696;29;20466;-88
2021/01/06 19:52:45;;;;;;;0.40;0.40;;;0.30;99.90;;;;;;4854702;29;20463;-86
2021/01/06 19:55:11;;;;;;;0.40;0.40;;;0.30;99.90;;;;;;4848492;29;20732;-87
2021/01/06 19:57:38;;;;;;;0.40;0.40;;;0.30;99.90;;;;;;4840391;29;20328;-89
2021/01/06 20:00:06;;;;;;;0.40;0.40;;;0.30;99.90;;;;;;4841606;29;20226;-87
2021/01/06 20:02:39;;;;;;;0.40;0.40;;;0.20;99.90;;;;;;4847194;29;20222;-87
2021/01/06 20:05:09;;;;;;;0.40;0.40;;;0.30;99.90;;;;;;4854277;29;20294;-87
2021/01/06 20:07:35;;;;;;;0.40;0.40;;;0.30;99.90;;;;;;4854804;29;20239;-87
2021/01/06 20:10:14;;;;;;;0.40;0.40;;;0.30;99.90;;;;;;4850947;29;20294;-87
2021/01/06 20:12:47;;;;;;;0.40;0.40;;;0.30;99.90;;;;;;4872870;29;20218;-86
2021/01/06 20:15:13;;;;;;;0.40;0.40;;;0.30;99.90;;;;;;4866568;29;20207;-87
2021/01/06 20:17:39;;;;;;;0.45;0.45;;;0.30;99.90;;;;;;4878020;29;20420;-87
2021/01/06 20:20:07;;;;;;;0.40;0.40;;;0.30;99.90;;;;;;4876799;29;20207;-86
2021/01/06 20:22:33;;;;;;;0.40;0.40;;;0.30;99.90;;;;;;4861356;29;20231;-87
2021/01/06 20:25:00;;;;;;;0.40;0.40;;;0.30;99.90;;;;;;4850689;29;20212;-85
2021/01/06 20:27:27;;;;;;;0.50;0.50;;;0.30;99.90;;;;;;4849755;29;20227;-86
2021/01/06 20:29:53;;;;;;;0.40;0.40;;;0.30;99.90;;;;;;4842643;29;20438;-87
2021/01/06 20:32:19;;;;;;;0.40;0.40;;;0.20;99.90;;;;;;4847829;29;20865;-87
2021/01/06 20:34:45;;;;;;;0.40;0.40;;;0.30;99.90;;;;;;4841753;29;20211;-86
2021/01/06 20:37:11;;;;;;;0.40;0.40;;;0.30;99.90;;;;;;4841602;29;20204;-86
2021/01/06 20:39:38;;;;;;;0.40;0.40;;;0.20;99.90;;;;;;4834080;29;20207;-86
2021/01/06 20:42:04;;;;;;;0.40;0.40;;;0.20;99.90;;;;;;4835807;29;20303;-87
2021/01/06 20:44:33;;;;;;;0.40;0.40;;;0.20;99.90;;;;;;4835902;29;20219;-86
2021/01/06 20:47:00;;;;;;;0.40;0.40;;;0.30;99.90;;;;;;4838534;29;20695;-87
2021/01/06 20:49:30;;;;;;;0.40;0.40;;;0.30;99.90;;;;;;4844079;29;20210;-89
2021/01/06 20:51:56;;;;;;;0.40;0.40;;;0.30;99.90;;;;;;4854858;29;20663;-88
2021/01/06 20:54:23;;;;;;;0.40;0.40;;;0.20;99.90;;;;;;4846947;29;20244;-88
2021/01/06 20:57:28;;;;;;;;;;;;;;;;;;;;;
2021/01/06 20:59:55;;;;;;;0.40;0.40;;;0.30;99.90;;;;;;4853454;29;20221;-83
2021/01/06 21:02:35;;;;;;;0.40;0.40;;;-0.20;99.90;;;;;;4849914;29;20230;-88
2021/01/06 21:05:18;;;;;;;0.45;0.45;;;0.30;99.90;;;;;;4852103;29;20211;-88
2021/01/06 21:10:57;;;;;;;0.40;0.40;;;;;;;;;;4844391;29;20218;-87
2021/01/06 21:13:23;;;;;;;0.40;0.40;;;;;;;;;;4854055;29;20408;-88
2021/01/06 21:15:51;;;;;;;0.40;0.40;;;0.20;99.90;;;;;;4853520;29;20226;-88
2021/01/06 21:18:17;;;;;;;0.43;0.43;;;;;;;;;;4853290;29;20203;-87
2021/01/06 21:20:46;;;;;;;0.40;0.40;;;0.20;99.90;;;;;;4852076;29;20215;-86
2021/01/06 21:23:12;;;;;;;0.40;0.40;;;;;;;;;;4853207;29;20295;-86
2021/01/06 21:25:39;;;;;;;0.40;0.40;;;;;;;;;;4853416;29;20275;-86
2021/01/06 21:28:05;;;;;;;0.40;0.40;;;0.20;99.90;;;;;;4856011;29;20215;-88
2021/01/06 21:30:31;;;;;;;0.40;0.40;;;0.30;99.90;;;;;;4856671;29;20574;-87
2021/01/06 21:32:58;;;;;;;0.40;0.40;;;0.20;99.90;;;;;;4854048;29;20583;-86
2021/01/06 21:35:24;;;;;;;0.40;0.40;;;0.30;99.90;;;;;;4855219;29;20690;-88
2021/01/06 21:37:50;;;;;;;0.40;0.40;;;0.30;99.90;;;;;;4855645;29;20204;-86
2021/01/06 21:40:17;;;;;;;0.40;0.40;;;0.20;99.90;;;;;;4852708;29;20516;-87
2021/01/06 21:42:43;;;;;;;0.40;0.40;;;0.30;99.90;;;;;;4841903;29;20232;-87
2021/01/06 21:45:10;;;;;;;0.40;0.40;;;0.30;99.90;;;;;;4855085;29;20620;-86
2021/01/06 21:47:37;;;;;;;0.40;0.40;;;0.30;99.90;;;;;;4851969;29;20228;-87
2021/01/06 21:50:06;;;;;;;0.45;0.45;;;0.30;99.90;;;;;;4845594;29;20238;-86
2021/01/06 21:52:32;;;;;;;0.40;0.40;;;0.30;99.90;;;;;;4839603;29;20212;-88
2021/01/06 21:54:58;;;;;;;0.40;0.40;;;0.30;99.90;;;;;;4839886;29;20414;-88
2021/01/06 21:57:32;;;;;;;0.40;0.40;;;0.30;99.90;;;;;;4849561;29;20243;-87
2021/01/06 21:59:58;;;;;;;0.40;0.40;;;0.30;99.90;;;;;;4839642;29;20211;-89
2021/01/06 22:02:25;;;;;;;0.40;0.40;;;0.30;99.90;;;;;;4839423;29;20306;-88
2021/01/06 22:04:57;;;;;;;0.40;0.40;;;0.30;99.90;;;;;;4854003;29;20222;-87
2021/01/06 22:07:49;;;;;;;0.40;0.40;;;0.30;99.90;;;;;;4845700;29;20736;-88
2021/01/06 22:10:17;;;;;;;0.40;0.40;;;;;;;;;;4819495;29;20217;-86
2021/01/06 22:12:48;;;;;;;0.40;0.40;;;;;;;;;;4841453;29;20212;-89
2021/01/06 22:15:25;;;;;;;0.40;0.40;;;0.20;99.90;;;;;;4839210;29;20260;-88
2021/01/06 22:17:53;;;;;;;0.40;0.40;;;0.20;99.90;;;;;;4849336;29;20215;-88
2021/01/06 22:20:20;;;;;;;0.40;0.40;;;;;;;;;;4843573;29;20303;-88
2021/01/06 22:23:04;;;;;;;0.40;0.40;;;0.20;99.90;;;;;;4854339;29;20758;-88
2021/01/06 22:25:34;;;;;;;0.40;0.40;;;0.20;99.90;;;;;;4843666;29;20211;-88
2021/01/06 22:28:01;;;;;;;0.40;0.40;;;;;;;;;;4846505;29;20228;-87
2021/01/06 22:30:27;;;;;;;0.40;0.40;;;0.30;99.90;;;;;;4853295;29;20446;-87
2021/01/06 22:32:54;;;;;;;0.40;0.40;;;;;;;;;;4839086;29;20215;-87
2021/01/06 22:35:20;;;;;;;0.45;0.45;;;0.30;99.90;;;;;;4838205;29;20739;-88
2021/01/06 22:37:46;;;;;;;0.40;0.40;;;0.30;99.90;;;;;;4846855;29;20211;-88
2021/01/06 22:40:13;;;;;;;0.40;0.40;;;0.30;99.90;;;;;;4843907;29;20215;-87
2021/01/06 22:42:39;;;;;;;0.40;0.40;;;0.30;99.90;;;;;;4838879;29;20208;-88
2021/01/06 22:45:07;;;;;;;0.40;0.40;;;0.30;99.90;;;;;;4838680;29;20601;-87
2021/01/06 22:47:33;;;;;;;0.40;0.40;;;0.20;99.90;;;;;;4852436;29;20571;-89
2021/01/06 22:49:59;;;;;;;0.40;0.40;;;0.30;99.90;;;;;;4850848;29;20215;-90
2021/01/06 22:52:29;;;;;;;0.40;0.40;;;0.20;99.90;;;;;;4853251;29;20682;-90
2021/01/06 22:54:55;;;;;;;0.40;0.40;;;0.20;99.90;;;;;;4839482;29;20207;-88
2021/01/06 22:57:22;;;;;;;0.40;0.40;;;0.30;99.90;;;;;;4849539;29;20684;-89
2021/01/06 22:59:48;;;;;;;0.40;0.40;;;0.20;99.90;;;;;;4848923;29;20207;-89
2021/01/06 23:02:14;;;;;;;0.40;0.40;;;0.20;99.90;;;;;;4845078;29;20288;-88
2021/01/06 23:04:40;;;;;;;0.40;0.40;;;0.30;99.90;;;;;;4838425;29;20276;-88
2021/01/06 23:07:08;;;;;;;0.40;0.40;;;0.30;99.90;;;;;;4839263;29;20275;-89
2021/01/06 23:09:34;;;;;;;0.40;0.40;;;0.20;99.90;;;;;;4839121;29;20570;-88
2021/01/06 23:12:01;;;;;;;0.40;0.40;;;0.20;99.90;;;;;;4840431;29;20272;-89
2021/01/06 23:14:28;;;;;;;0.40;0.40;;;0.20;99.90;;;;;;4842821;29;20427;-91
2021/01/06 23:16:54;;;;;;;0.40;0.40;;;0.20;99.90;;;;;;4841745;29;20203;-88
2021/01/06 23:19:20;;;;;;;0.40;0.40;;;0.20;99.90;;;;;;4850558;29;20208;-87
2021/01/06 23:21:46;;;;;;;0.40;0.40;;;0.30;99.90;;;;;;4848497;29;20215;-88
2021/01/06 23:24:16;;;;;;;0.40;0.40;;;0.30;99.90;;;;;;4844716;29;20235;-88
2021/01/06 23:29:28;;;;;;;0.40;0.40;;;0.30;99.90;;;;;;4848339;29;20219;-88
2021/01/06 23:31:54;;;;;;;0.40;0.40;;;0.20;99.90;;;;;;4846854;29;20220;-89
2021/01/06 23:34:20;;;;;;;0.40;0.40;;;0.30;99.90;;;;;;4844433;29;20580;-89
2021/01/06 23:36:49;;;;;;;0.40;0.40;;;0.20;99.90;;;;;;4856907;29;20206;-88
2021/01/06 23:39:17;;;;;;;0.40;0.40;;;0.30;99.90;;;;;;4856713;29;20218;-88
2021/01/06 23:41:43;;;;;;;0.40;0.40;;;0.20;99.90;;;;;;4855283;29;20211;-87
2021/01/06 23:44:09;;;;;;;0.40;0.40;;;0.20;99.90;;;;;;4847404;29;20207;-86
2021/01/06 23:46:36;;;;;;;0.40;0.40;;;0.20;99.90;;;;;;4856256;29;20291;-87
2021/01/06 23:49:05;;;;;;;0.40;0.40;;;0.30;99.90;;;;;;4853126;29;20219;-87
2021/01/06 23:51:32;;;;;;;0.40;0.40;;;0.20;99.90;;;;;;4854237;29;20203;-86
2021/01/06 23:53:58;;;;;;;0.40;0.40;;;0.30;99.90;;;;;;4854190;29;20321;-87
2021/01/06 23:56:27;;;;;;;0.40;0.40;;;0.20;99.90;;;;;;4852879;29;20215;-86
2021/01/06 23:58:53;;;;;;;0.50;0.50;;;0.30;99.90;;;;;;4853508;29;20239;-89
